createdAt,value
2022-11-23T00:00:06.889Z,1.57
2022-11-23T00:02:33.575Z,1.67
2022-11-23T00:05:00.273Z,1.70
2022-11-23T00:07:27.116Z,1.70
2022-11-23T00:09:54.061Z,1.60
2022-11-23T00:12:20.757Z,1.83
2022-11-23T00:14:47.425Z,1.80
2022-11-23T00:17:14.216Z,1.53
2022-11-23T00:19:40.926Z,2.07
2022-11-23T00:22:07.571Z,1.67
2022-11-23T00:24:34.295Z,1.23
2022-11-23T00:27:00.950Z,1.60
2022-11-23T00:29:27.972Z,1.93
2022-11-23T00:31:54.729Z,1.53
2022-11-23T00:34:21.375Z,1.53
2022-11-23T00:36:47.968Z,1.50
2022-11-23T00:39:14.596Z,1.80
2022-11-23T00:41:43.104Z,1.90
2022-11-23T00:44:10.029Z,1.57
2022-11-23T00:46:36.618Z,1.93
2022-11-23T00:49:05.343Z,2.37
2022-11-23T00:51:33.030Z,1.90
2022-11-23T00:54:00.526Z,2.27
2022-11-23T00:56:28.015Z,1.90
2022-11-23T00:58:55.686Z,1.80
2022-11-23T01:01:24.083Z,2.30
2022-11-23T01:03:52.643Z,1.97
2022-11-23T01:06:21.310Z,2.00
2022-11-23T01:08:48.659Z,2.10
2022-11-23T01:11:15.472Z,1.60
2022-11-23T01:13:42.512Z,1.90
2022-11-23T01:16:19.472Z,1.90
2022-11-23T01:18:52.314Z,2.57
2022-11-23T01:21:18.975Z,2.20
2022-11-23T01:23:45.580Z,2.07
2022-11-23T01:26:12.246Z,1.83
2022-11-23T01:28:39.511Z,1.97
2022-11-23T01:31:11.264Z,2.37
2022-11-23T01:33:38.174Z,2.43
2022-11-23T01:36:15.324Z,2.50
2022-11-23T01:38:44.102Z,1.87
2022-11-23T01:41:15.084Z,1.90
2022-11-23T01:43:41.873Z,2.13
2022-11-23T01:46:08.830Z,1.90
2022-11-23T01:48:41.612Z,1.70
2022-11-23T01:51:28.516Z,2.10
2022-11-23T01:53:57.406Z,2.03
2022-11-23T01:56:27.004Z,2.97
2022-11-23T01:58:55.264Z,2.23
2022-11-23T02:01:21.958Z,2.20
2022-11-23T02:03:49.254Z,2.00
2022-11-23T02:06:17.916Z,1.87
2022-11-23T02:08:44.773Z,2.40
2022-11-23T02:11:16.123Z,2.00
2022-11-23T02:13:44.882Z,2.10
2022-11-23T02:16:11.757Z,1.83
2022-11-23T02:18:40.010Z,2.10
2022-11-23T02:21:07.103Z,2.60
2022-11-23T02:23:39.846Z,2.43
2022-11-23T02:26:19.341Z,1.97
2022-11-23T02:28:48.018Z,2.30
2022-11-23T02:31:14.688Z,3.03
2022-11-23T02:33:41.403Z,1.97
2022-11-23T02:36:26.970Z,2.10
2022-11-23T02:38:54.691Z,2.30
2022-11-23T02:41:22.174Z,3.30
2022-11-23T02:43:52.766Z,2.47
2022-11-23T02:46:19.354Z,3.17
2022-11-23T02:48:49.315Z,2.57
2022-11-23T02:51:15.945Z,2.37
2022-11-23T02:53:42.579Z,2.17
2022-11-23T02:56:10.499Z,2.03
2022-11-23T02:58:37.257Z,2.27
2022-11-23T03:01:06.904Z,1.73
2022-11-23T03:03:33.708Z,2.43
2022-11-23T03:06:04.055Z,2.93
2022-11-23T03:08:32.442Z,2.80
2022-11-23T03:11:01.042Z,1.87
2022-11-23T03:13:29.170Z,2.17
2022-11-23T03:15:59.559Z,1.47
2022-11-23T03:18:26.934Z,2.63
2022-11-23T03:20:54.241Z,2.03
2022-11-23T03:23:20.973Z,1.93
2022-11-23T03:25:54.881Z,1.87
2022-11-23T03:28:22.073Z,2.47
2022-11-23T03:30:48.702Z,2.03
2022-11-23T03:33:15.398Z,1.50
2022-11-23T03:35:42.578Z,1.73
2022-11-23T03:38:18.543Z,1.97
2022-11-23T03:40:48.829Z,1.87
2022-11-23T03:43:22.944Z,1.73
2022-11-23T03:45:49.591Z,2.30
2022-11-23T03:48:16.803Z,1.70
2022-11-23T03:50:44.521Z,1.73
2022-11-23T03:53:11.320Z,2.53
2022-11-23T03:55:38.185Z,1.50
2022-11-23T03:58:05.073Z,1.80
2022-11-23T04:00:35.427Z,1.83
2022-11-23T04:03:02.179Z,1.73
2022-11-23T04:06:03.900Z,2.07
2022-11-23T04:09:00.377Z,1.90
2022-11-23T04:11:47.509Z,1.60
2022-11-23T04:14:14.144Z,2.07
2022-11-23T04:16:40.741Z,2.50
2022-11-23T04:19:07.613Z,2.50
2022-11-23T04:21:34.358Z,2.00
2022-11-23T04:24:01.140Z,2.53
2022-11-23T04:26:30.801Z,2.00
2022-11-23T04:28:57.610Z,2.10
2022-11-23T04:31:24.398Z,2.73
2022-11-23T04:34:04.193Z,2.00
2022-11-23T04:36:30.961Z,2.30
2022-11-23T04:38:58.033Z,2.43
2022-11-23T04:41:34.023Z,1.87
2022-11-23T04:44:02.240Z,2.43
2022-11-23T04:46:28.959Z,1.90
2022-11-23T04:48:59.528Z,1.93
2022-11-23T04:51:26.890Z,2.00
2022-11-23T04:53:54.581Z,2.50
2022-11-23T04:56:21.244Z,2.40
2022-11-23T04:58:48.367Z,2.17
2022-11-23T05:01:15.133Z,1.73
2022-11-23T05:04:04.621Z,2.53
2022-11-23T05:06:31.241Z,2.37
2022-11-23T05:08:59.049Z,2.37
2022-11-23T05:11:57.802Z,2.07
2022-11-23T05:14:25.230Z,2.33
2022-11-23T05:16:52.608Z,4.10
2022-11-23T05:19:19.506Z,2.10
2022-11-23T05:21:46.289Z,2.40
2022-11-23T05:24:14.917Z,2.60
2022-11-23T05:26:53.353Z,2.33
2022-11-23T05:29:22.693Z,2.20
2022-11-23T05:31:49.412Z,2.07
2022-11-23T05:34:17.175Z,2.10
2022-11-23T05:36:46.487Z,2.27
2022-11-23T05:39:13.895Z,2.13
2022-11-23T05:41:40.630Z,2.70
2022-11-23T05:44:21.208Z,2.23
2022-11-23T05:46:47.844Z,3.20
2022-11-23T05:49:15.153Z,3.20
2022-11-23T05:51:42.638Z,3.23
2022-11-23T05:54:09.394Z,2.77
2022-11-23T05:56:42.815Z,2.33
2022-11-23T05:59:15.368Z,2.13
2022-11-23T06:01:46.165Z,1.80
2022-11-23T06:04:19.796Z,1.97
2022-11-23T06:06:46.559Z,2.10
2022-11-23T06:09:13.296Z,1.53
2022-11-23T06:11:44.817Z,1.77
2022-11-23T06:14:15.237Z,1.77
2022-11-23T06:16:44.956Z,2.00
2022-11-23T06:19:38.016Z,2.23
2022-11-23T06:22:05.820Z,1.60
2022-11-23T06:24:37.475Z,2.30
2022-11-23T06:27:42.418Z,2.40
2022-11-23T06:30:20.875Z,3.57
2022-11-23T06:32:48.179Z,7.17
2022-11-23T06:35:15.957Z,3.83
2022-11-23T06:37:44.217Z,4.60
2022-11-23T06:40:12.518Z,3.10
2022-11-23T06:42:40.477Z,2.40
2022-11-23T06:45:16.987Z,1.97
2022-11-23T06:47:44.466Z,2.80
2022-11-23T06:50:11.333Z,1.70
2022-11-23T06:52:39.091Z,3.47
2022-11-23T06:55:05.907Z,1.80
2022-11-23T06:57:32.639Z,2.10
2022-11-23T06:59:59.588Z,2.00
2022-11-23T07:02:32.798Z,3.70
2022-11-23T07:04:59.765Z,2.27
2022-11-23T07:07:28.627Z,2.87
2022-11-23T07:10:07.308Z,2.50
2022-11-23T07:12:49.910Z,2.07
2022-11-23T07:15:19.887Z,2.13
2022-11-23T07:17:46.668Z,3.60
2022-11-23T07:20:14.036Z,3.70
2022-11-23T07:22:40.904Z,3.10
2022-11-23T07:25:08.361Z,3.17
2022-11-23T07:27:35.114Z,2.83
2022-11-23T07:30:02.940Z,3.10
2022-11-23T07:32:30.370Z,2.67
2022-11-23T07:34:57.262Z,2.47
2022-11-23T07:37:25.529Z,2.67
2022-11-23T07:39:57.903Z,3.93
2022-11-23T07:42:39.863Z,2.40
2022-11-23T07:45:10.283Z,2.27
2022-11-23T07:47:39.012Z,2.50
2022-11-23T07:50:06.715Z,3.20
2022-11-23T07:52:35.268Z,2.57
2022-11-23T07:55:02.007Z,2.27
2022-11-23T07:57:28.679Z,2.07
2022-11-23T07:59:55.320Z,2.17
2022-11-23T08:02:21.992Z,2.20
2022-11-23T08:04:48.703Z,2.50
2022-11-23T08:07:15.535Z,2.43
2022-11-23T08:09:42.852Z,2.07
2022-11-23T08:12:09.534Z,2.30
2022-11-23T08:14:36.273Z,2.67
2022-11-23T08:17:03.176Z,2.20
2022-11-23T08:19:29.916Z,2.67
2022-11-23T08:21:56.628Z,2.97
2022-11-23T08:24:23.364Z,2.70
2022-11-23T08:26:50.087Z,2.03
2022-11-23T08:29:16.973Z,1.97
2022-11-23T08:31:43.930Z,2.80
2022-11-23T08:34:10.726Z,2.47
2022-11-23T08:36:37.564Z,2.33
2022-11-23T08:39:04.218Z,2.70
2022-11-23T08:41:30.936Z,2.17
2022-11-23T08:43:57.536Z,1.83
2022-11-23T08:46:25.093Z,1.90
2022-11-23T08:48:51.831Z,1.80
2022-11-23T08:51:22.696Z,1.90
2022-11-23T08:53:50.151Z,1.67
2022-11-23T08:56:17.054Z,1.90
2022-11-23T08:58:44.097Z,1.70
2022-11-23T09:01:15.037Z,1.60
2022-11-23T09:03:42.210Z,1.33
2022-11-23T09:06:08.927Z,1.63
2022-11-23T09:08:36.107Z,1.53
2022-11-23T09:11:03.917Z,1.97
2022-11-23T09:13:30.591Z,1.83
2022-11-23T09:16:00.666Z,1.90
2022-11-23T09:18:28.014Z,2.10
2022-11-23T09:20:54.743Z,1.50
2022-11-23T09:23:21.456Z,1.37
2022-11-23T09:25:50.133Z,1.83
2022-11-23T09:28:19.731Z,1.83
2022-11-23T09:30:47.684Z,1.47
2022-11-23T09:33:14.547Z,1.67
2022-11-23T09:35:44.029Z,1.70
2022-11-23T09:38:10.978Z,1.73
2022-11-23T09:40:38.977Z,1.50
2022-11-23T09:43:17.974Z,1.50
2022-11-23T09:45:49.418Z,1.23
2022-11-23T09:48:28.797Z,1.40
2022-11-23T09:51:05.637Z,1.27
2022-11-23T09:53:32.292Z,2.13
2022-11-23T09:55:58.981Z,1.67
2022-11-23T09:58:27.480Z,1.40
2022-11-23T10:00:59.375Z,1.70
2022-11-23T10:03:26.184Z,1.27
2022-11-23T10:06:16.006Z,1.20
2022-11-23T10:08:51.996Z,1.30
2022-11-23T10:11:33.883Z,1.60
2022-11-23T10:14:00.658Z,1.00
2022-11-23T10:16:27.415Z,1.33
2022-11-23T10:19:06.328Z,1.00
2022-11-23T10:21:35.909Z,1.57
2022-11-23T10:24:08.521Z,1.60
2022-11-23T10:26:37.803Z,1.73
2022-11-23T10:29:13.763Z,1.30
2022-11-23T10:31:43.239Z,1.10
2022-11-23T10:34:14.066Z,1.20
2022-11-23T10:36:41.401Z,1.27
2022-11-23T10:39:17.758Z,1.67
2022-11-23T10:41:44.804Z,1.30
2022-11-23T10:44:22.105Z,1.07
2022-11-23T10:46:48.770Z,1.10
2022-11-23T10:49:17.148Z,1.23
2022-11-23T10:52:00.444Z,1.20
2022-11-23T10:54:30.146Z,1.10
2022-11-23T10:56:58.144Z,1.37
2022-11-23T10:59:29.636Z,1.27
2022-11-23T11:02:11.324Z,1.33
2022-11-23T11:04:38.086Z,0.90
2022-11-23T11:07:25.363Z,1.40
2022-11-23T11:09:56.586Z,1.70
2022-11-23T11:12:23.751Z,1.17
2022-11-23T11:15:11.790Z,1.37
2022-11-23T11:17:39.783Z,1.63
2022-11-23T11:20:24.932Z,1.67
2022-11-23T11:22:51.586Z,1.10
2022-11-23T11:25:27.385Z,1.40
2022-11-23T11:27:54.152Z,1.37
2022-11-23T11:30:22.654Z,1.03
2022-11-23T11:32:54.330Z,1.10
2022-11-23T11:35:26.432Z,0.73
2022-11-23T11:37:56.018Z,1.40
2022-11-23T11:40:37.199Z,1.20
2022-11-23T11:43:03.842Z,1.63
2022-11-23T11:45:36.934Z,1.20
2022-11-23T11:48:06.557Z,1.17
2022-11-23T11:50:36.533Z,1.30
2022-11-23T11:53:05.642Z,1.13
2022-11-23T11:55:40.693Z,1.17
2022-11-23T11:58:11.441Z,1.13
2022-11-23T12:00:44.886Z,1.20
2022-11-23T12:03:38.164Z,1.07
2022-11-23T12:06:08.657Z,0.90
2022-11-23T12:08:54.267Z,1.10
2022-11-23T12:11:21.066Z,1.50
2022-11-23T12:13:47.837Z,1.23
2022-11-23T12:16:23.596Z,1.57
2022-11-23T12:18:59.447Z,1.00
2022-11-23T12:21:41.294Z,1.10
2022-11-23T12:24:27.051Z,0.97
2022-11-23T12:27:12.752Z,1.30
2022-11-23T12:29:45.432Z,1.40
2022-11-23T12:32:12.064Z,1.20
2022-11-23T12:34:57.425Z,1.20
2022-11-23T12:37:42.873Z,1.37
2022-11-23T12:40:28.165Z,1.20
2022-11-23T12:43:00.812Z,1.40
2022-11-23T12:45:30.611Z,1.23
2022-11-23T12:48:20.320Z,1.33
2022-11-23T12:50:52.789Z,1.67
2022-11-23T12:53:38.148Z,1.30
2022-11-23T12:56:10.728Z,1.37
2022-11-23T12:58:38.572Z,1.43
2022-11-23T13:01:07.550Z,1.23
2022-11-23T13:03:52.570Z,1.20
2022-11-23T13:07:12.420Z,1.17
2022-11-23T13:09:51.422Z,1.53
2022-11-23T13:12:20.812Z,1.70
2022-11-23T13:15:06.134Z,1.37
2022-11-23T13:17:56.717Z,1.30
2022-11-23T13:20:36.578Z,1.50
2022-11-23T13:23:04.970Z,1.40
2022-11-23T13:25:31.770Z,1.67
2022-11-23T13:28:30.598Z,1.40
2022-11-23T13:31:15.917Z,1.40
2022-11-23T13:33:43.876Z,1.43
2022-11-23T13:36:18.313Z,1.47
2022-11-23T13:38:46.574Z,1.20
2022-11-23T13:41:33.495Z,1.60
2022-11-23T13:44:19.211Z,1.57
2022-11-23T13:47:06.228Z,1.67
2022-11-23T13:49:43.289Z,1.70
2022-11-23T13:52:16.239Z,1.80
2022-11-23T13:54:53.040Z,3.70
2022-11-23T13:57:19.767Z,2.20
2022-11-23T13:59:46.426Z,2.00
2022-11-23T14:02:13.717Z,1.70
2022-11-23T14:04:44.465Z,1.73
2022-11-23T14:07:11.221Z,1.47
2022-11-23T14:09:53.262Z,2.07
2022-11-23T14:12:26.314Z,1.53
2022-11-23T14:14:55.971Z,1.70
2022-11-23T14:17:25.430Z,2.50
2022-11-23T14:20:11.333Z,1.63
2022-11-23T14:22:56.943Z,2.33
2022-11-23T14:25:34.703Z,2.00
2022-11-23T14:28:20.123Z,2.03
2022-11-23T14:30:58.713Z,2.27
2022-11-23T14:33:43.974Z,2.70
2022-11-23T14:36:29.473Z,2.93
2022-11-23T14:39:02.022Z,2.60
2022-11-23T14:41:30.932Z,3.40
2022-11-23T14:44:00.306Z,2.70
2022-11-23T14:46:27.104Z,2.87
2022-11-23T14:49:03.342Z,2.90
2022-11-23T14:51:30.137Z,2.30
2022-11-23T14:53:59.004Z,2.33
2022-11-23T14:56:31.502Z,2.27
2022-11-23T14:59:01.613Z,2.40
2022-11-23T15:01:28.424Z,2.93
2022-11-23T15:03:56.468Z,2.50
2022-11-23T15:06:25.596Z,2.70
2022-11-23T15:09:11.014Z,2.73
2022-11-23T15:11:37.735Z,3.70
2022-11-23T15:14:16.491Z,3.70
2022-11-23T15:16:43.112Z,2.60
2022-11-23T15:19:29.125Z,3.70
2022-11-23T15:21:56.566Z,3.03
2022-11-23T15:24:24.956Z,3.27
2022-11-23T15:26:51.874Z,2.20
2022-11-23T15:29:38.676Z,2.80
2022-11-23T15:32:36.302Z,2.53
2022-11-23T15:35:06.967Z,2.60
2022-11-23T15:37:36.840Z,2.20
2022-11-23T15:40:06.656Z,2.53
2022-11-23T15:42:33.339Z,3.23
2022-11-23T15:45:00.048Z,2.00
2022-11-23T15:47:28.141Z,2.10
2022-11-23T15:50:02.133Z,2.37
2022-11-23T15:52:33.229Z,1.97
2022-11-23T15:55:08.605Z,1.93
2022-11-23T15:57:37.111Z,1.60
2022-11-23T16:00:04.802Z,2.23
2022-11-23T16:02:38.931Z,2.43
2022-11-23T16:05:10.108Z,1.97
2022-11-23T16:07:49.589Z,1.80
2022-11-23T16:10:20.858Z,1.50
2022-11-23T16:12:49.936Z,1.30
2022-11-23T16:15:38.138Z,1.40
2022-11-23T16:18:05.584Z,1.50
2022-11-23T16:20:32.742Z,0.13
2022-11-23T16:23:00.481Z,0.20
2022-11-23T16:25:34.340Z,0.20
2022-11-23T16:28:05.740Z,0.10
2022-11-23T16:30:39.528Z,0.10
2022-11-23T16:33:06.407Z,0.27
2022-11-23T16:35:33.104Z,0.10
2022-11-23T16:37:59.750Z,0.20
2022-11-23T16:40:26.857Z,0.10
2022-11-23T16:42:53.840Z,0.10
2022-11-23T16:45:20.676Z,0.30
2022-11-23T16:47:51.863Z,0.30
2022-11-23T16:50:18.877Z,0.10
2022-11-23T16:52:45.537Z,0.10
2022-11-23T16:55:12.146Z,0.20
2022-11-23T16:57:39.236Z,0.20
2022-11-23T17:00:07.752Z,0.10
2022-11-23T17:02:34.437Z,0.10
2022-11-23T17:05:01.162Z,0.17
2022-11-23T17:07:27.942Z,0.20
2022-11-23T17:09:54.723Z,0.10
2022-11-23T17:12:21.322Z,0.10
2022-11-23T17:14:48.522Z,0.10
2022-11-23T17:17:22.372Z,0.10
2022-11-23T17:19:49.911Z,0.10
2022-11-23T17:22:17.383Z,0.20
2022-11-23T17:24:44.392Z,0.30
2022-11-23T17:27:20.238Z,0.10
2022-11-23T17:29:47.244Z,0.13
2022-11-23T17:32:14.536Z,0.20
2022-11-23T17:34:41.320Z,0.20
2022-11-23T17:37:16.511Z,0.10
2022-11-23T17:39:43.249Z,0.10
2022-11-23T17:42:11.369Z,0.20
2022-11-23T17:44:38.047Z,0.20
2022-11-23T17:47:05.158Z,0.10
2022-11-23T17:49:32.581Z,0.20
2022-11-23T17:51:59.443Z,0.20
2022-11-23T17:54:26.112Z,0.10
2022-11-23T17:56:52.713Z,0.10
2022-11-23T17:59:19.367Z,0.10
2022-11-23T18:01:46.041Z,0.10
2022-11-23T18:04:12.825Z,0.20
2022-11-23T18:06:39.499Z,0.10
2022-11-23T18:09:06.703Z,1.10
2022-11-23T18:11:33.275Z,1.87
2022-11-23T18:13:59.913Z,1.93
2022-11-23T18:16:26.622Z,1.90
2022-11-23T18:18:53.402Z,1.90
2022-11-23T18:21:20.041Z,2.13
2022-11-23T18:23:47.038Z,2.23
2022-11-23T18:26:21.264Z,2.50
2022-11-23T18:28:48.651Z,2.07
2022-11-23T18:31:16.038Z,2.17
2022-11-23T18:33:42.962Z,2.63
2022-11-23T18:36:10.630Z,2.50
2022-11-23T18:38:37.814Z,2.53
2022-11-23T18:41:04.647Z,2.37
2022-11-23T18:43:31.364Z,2.30
2022-11-23T18:45:58.166Z,2.30
2022-11-23T18:48:25.034Z,2.70
2022-11-23T18:50:51.714Z,2.73
2022-11-23T18:53:18.962Z,2.37
2022-11-23T18:55:45.620Z,2.53
2022-11-23T18:58:12.383Z,2.60
2022-11-23T19:00:38.987Z,2.50
2022-11-23T19:03:05.576Z,2.60
2022-11-23T19:05:33.533Z,3.17
2022-11-23T19:08:04.405Z,3.93
2022-11-23T19:10:35.238Z,2.83
2022-11-23T19:13:05.465Z,4.33
2022-11-23T19:15:33.462Z,4.90
2022-11-23T19:18:00.360Z,3.37
2022-11-23T19:20:28.873Z,3.70
2022-11-23T19:22:55.756Z,6.10
2022-11-23T19:25:22.400Z,5.53
2022-11-23T19:27:51.367Z,3.30
2022-11-23T19:30:18.469Z,3.23
2022-11-23T19:32:46.520Z,3.20
2022-11-23T19:35:13.179Z,3.87
2022-11-23T19:37:40.131Z,4.80
2022-11-23T19:40:07.253Z,5.57
2022-11-23T19:42:35.831Z,6.10
2022-11-23T19:45:03.403Z,5.17
2022-11-23T19:47:34.314Z,9.73
2022-11-23T19:50:01.223Z,4.40
2022-11-23T19:52:41.999Z,5.23
2022-11-23T19:55:16.100Z,10.93
2022-11-23T19:57:42.761Z,7.37
2022-11-23T20:00:09.705Z,4.13
2022-11-23T20:02:38.773Z,4.43
2022-11-23T20:05:05.750Z,4.17
2022-11-23T20:07:32.535Z,4.43
2022-11-23T20:09:59.606Z,4.50
2022-11-23T20:12:26.249Z,3.30
2022-11-23T20:14:52.863Z,4.03
2022-11-23T20:17:19.668Z,3.40
2022-11-23T20:19:46.594Z,3.57
2022-11-23T20:22:13.209Z,3.87
2022-11-23T20:24:39.811Z,3.77
2022-11-23T20:27:06.385Z,3.67
2022-11-23T20:29:33.155Z,4.40
2022-11-23T20:31:59.946Z,3.90
2022-11-23T20:34:27.306Z,3.80
2022-11-23T20:36:53.923Z,3.70
2022-11-23T20:39:20.560Z,3.17
2022-11-23T20:41:49.458Z,2.77
2022-11-23T20:44:16.175Z,3.47
2022-11-23T20:49:30.481Z,3.03
2022-11-23T20:51:57.303Z,3.80
2022-11-23T20:54:24.513Z,3.90
2022-11-23T20:56:51.132Z,3.23
2022-11-23T20:59:19.708Z,3.90
2022-11-23T21:01:46.355Z,3.17
2022-11-23T21:04:13.255Z,3.43
2022-11-23T21:06:40.386Z,4.13
2022-11-23T21:09:07.828Z,4.37
2022-11-23T21:11:53.091Z,3.57
2022-11-23T21:14:20.648Z,3.33
2022-11-23T21:16:55.911Z,4.10
2022-11-23T21:19:24.005Z,2.60
2022-11-23T21:21:51.119Z,4.93
2022-11-23T21:24:18.247Z,4.03
2022-11-23T21:26:44.935Z,3.97
2022-11-23T21:29:11.676Z,3.30
2022-11-23T21:31:39.437Z,3.90
2022-11-23T21:34:06.354Z,3.50
2022-11-23T21:36:34.379Z,3.73
2022-11-23T21:39:01.771Z,3.07
2022-11-23T21:41:28.411Z,3.40
2022-11-23T21:43:55.326Z,3.77
2022-11-23T21:46:23.598Z,3.47
2022-11-23T21:48:57.069Z,3.50
2022-11-23T21:51:26.806Z,3.77
2022-11-23T21:53:54.158Z,3.30
2022-11-23T21:56:20.917Z,3.33
2022-11-23T21:58:47.738Z,2.93
2022-11-23T22:01:18.932Z,3.70
2022-11-23T22:03:46.916Z,3.67
2022-11-23T22:06:20.200Z,3.97
2022-11-23T22:08:48.303Z,3.60
2022-11-23T22:11:24.779Z,3.47
2022-11-23T22:13:55.183Z,3.43
2022-11-23T22:16:23.249Z,3.03
2022-11-23T22:18:55.404Z,4.27
2022-11-23T22:21:24.272Z,3.87
2022-11-23T22:23:51.071Z,3.60
2022-11-23T22:26:18.515Z,3.50
2022-11-23T22:28:47.403Z,4.37
2022-11-23T22:31:15.243Z,3.30
2022-11-23T22:33:42.272Z,3.77
2022-11-23T22:36:10.337Z,3.13
2022-11-23T22:38:37.011Z,3.27
2022-11-23T22:41:04.563Z,3.47
2022-11-23T22:43:31.346Z,3.50
2022-11-23T22:46:05.782Z,3.30
2022-11-23T22:48:32.711Z,3.57
2022-11-23T22:51:00.514Z,4.13
2022-11-23T22:53:27.767Z,3.40
2022-11-23T22:55:54.638Z,2.60
2022-11-23T22:58:21.257Z,3.13
2022-11-23T23:00:47.896Z,3.03
2022-11-23T23:03:14.806Z,3.03
2022-11-23T23:05:41.472Z,2.87
2022-11-23T23:08:08.243Z,2.67
2022-11-23T23:10:35.740Z,3.90
2022-11-23T23:13:02.367Z,3.63
2022-11-23T23:15:29.098Z,3.10
2022-11-23T23:17:55.971Z,3.37
2022-11-23T23:20:22.714Z,3.03
2022-11-23T23:22:49.394Z,2.47
2022-11-23T23:25:15.986Z,2.70
2022-11-23T23:27:42.690Z,2.83
2022-11-23T23:30:09.634Z,2.80
2022-11-23T23:32:36.331Z,3.93
2022-11-23T23:35:03.042Z,2.93
2022-11-23T23:37:31.078Z,3.10
2022-11-23T23:39:57.842Z,3.37
2022-11-23T23:42:24.989Z,2.43
2022-11-23T23:44:51.634Z,2.63
2022-11-23T23:47:18.679Z,2.80
2022-11-23T23:49:45.313Z,2.67
2022-11-23T23:52:12.097Z,2.80
2022-11-23T23:54:38.738Z,3.10
2022-11-23T23:57:05.381Z,2.70
2022-11-23T23:59:32.012Z,2.20
